Barra do Corda Airport


Codes: SNBC/BDC
Name: Barra do Corda Airport
City: Barra Do Corda
Country: Brazil
Elevation: 509 ft.

Photos at Barra do Corda Airport


   Photos courtesy of SpottingLog. You can add your own sightings and photos by signing up for a free trial today.



No photos found.

Weather at Barra do Corda Airport


Time (UTC)DescriptionTempratureWindCloud coverageVisibilityPressureHumidity
16-Jun-2024 00:00Overcast Clouds27°C2 mph, E100%10000m1014hPa61%
16-Jun-2024 03:00Overcast Clouds27°C2 mph, NE100%10000m1014hPa61%
16-Jun-2024 06:00Overcast Clouds26°C4 mph, SE100%10000m1013hPa62%
16-Jun-2024 09:00Overcast Clouds26°C4 mph, SE100%10000m1013hPa60%
16-Jun-2024 12:00Broken Clouds29°C11 mph, SE69%10000m1014hPa43%
16-Jun-2024 15:00Few Clouds33°C9 mph, SE16%10000m1012hPa36%
16-Jun-2024 18:00Broken Clouds33°C9 mph, E58%10000m1010hPa38%
16-Jun-2024 21:00Overcast Clouds30°C7 mph, E97%10000m1010hPa45%
17-Jun-2024 00:00Overcast Clouds28°C2 mph, NE98%10000m1012hPa54%
17-Jun-2024 03:00Overcast Clouds27°C2 mph, NE92%10000m1011hPa57%
17-Jun-2024 06:00Overcast Clouds26°C4 mph, E96%10000m1010hPa59%
17-Jun-2024 09:00Broken Clouds23°C4 mph, E64%10000m1012hPa64%
17-Jun-2024 12:00Scattered Clouds29°C11 mph, SE32%10000m1013hPa45%
17-Jun-2024 15:00Clear Sky33°C9 mph, SE0%10000m1011hPa32%
17-Jun-2024 18:00Clear Sky35°C7 mph, E0%10000m1008hPa29%
17-Jun-2024 21:00Clear Sky29°C4 mph, E0%10000m1009hPa43%
18-Jun-2024 00:00Clear Sky25°C2 mph, NE0%10000m1011hPa52%
18-Jun-2024 03:00Clear Sky23°C2 mph, NE0%10000m1011hPa59%
18-Jun-2024 06:00Clear Sky22°C2 mph, NE0%10000m1010hPa63%
18-Jun-2024 09:00Few Clouds21°C2 mph, NE11%10000m1012hPa66%
18-Jun-2024 12:00Clear Sky29°C4 mph, E8%10000m1013hPa44%
18-Jun-2024 15:00Clear Sky34°C7 mph, E1%10000m1011hPa36%
18-Jun-2024 18:00Clear Sky35°C9 mph, E8%10000m1008hPa29%
18-Jun-2024 21:00Few Clouds29°C4 mph, NE11%10000m1008hPa47%
19-Jun-2024 00:00Clear Sky25°C4 mph, N8%10000m1011hPa66%
19-Jun-2024 03:00Broken Clouds25°C0 mph, NE75%10000m1010hPa70%
19-Jun-2024 06:00Scattered Clouds22°C4 mph, E49%10000m1011hPa83%
19-Jun-2024 09:00Few Clouds21°C2 mph, NE22%10000m1012hPa94%
19-Jun-2024 12:00Scattered Clouds29°C7 mph, SE34%10000m1014hPa51%
19-Jun-2024 15:00Clear Sky34°C9 mph, E3%10000m1012hPa29%
19-Jun-2024 18:00Clear Sky35°C9 mph, E0%10000m1009hPa30%
19-Jun-2024 21:00Clear Sky30°C4 mph, NE1%10000m1009hPa43%
20-Jun-2024 00:00Clear Sky26°C4 mph, NE5%10000m1010hPa50%
20-Jun-2024 03:00Scattered Clouds24°C2 mph, S30%10000m1010hPa55%
20-Jun-2024 06:00Broken Clouds26°C4 mph, E62%10000m1010hPa52%
20-Jun-2024 09:00Scattered Clouds23°C4 mph, E36%10000m1011hPa71%
20-Jun-2024 12:00Broken Clouds29°C9 mph, SE68%10000m1013hPa45%
20-Jun-2024 15:00Overcast Clouds34°C9 mph, E100%10000m1011hPa35%
20-Jun-2024 18:00Broken Clouds36°C7 mph, E76%10000m1008hPa29%
20-Jun-2024 21:00Overcast Clouds30°C4 mph, E86%10000m1009hPa41%